Terminal Aerodrome Forecast
Issued by NWS

Home | Current Version | Previous Version | Text Only | Print | Product List | Glossary On
Versions: 1 2 3 4 5 6 7 8 9 10 11 12 13 14 15 16 17 18 19 20 21 22 23 24 25 26 27 28
000
FTPA31 PHFO 221000 AAC
TAFPPG
TAF AMD
NSTU 221027Z 2210/2306 11017KT 1SM +SHRA BR BKN007
     FM221100 11017KT P6SM VCSH SCT015 BKN035
      TEMPO 2211/2213 5SM -SHRA BR BKN015=

USA.gov is the U.S. government's official web portal to all federal, state and local government web resources and services.